Time,TemperatureF,DewpointF,PressureIn,WindDirection,WindDirectionDegrees,WindSpeedMPH,WindSpeedGustMPH,Humidity,HourlyPrecipIn,Conditions,Clouds,dailyrainin,SoftwareType,DateUTC
2013-08-08 09:09:00,69.4,39.1,-100.00,SSW,196,0.0,0.0,33,0.00,,,0.00,VWS V14.01,2013-08-08 16:09:00,
2013-08-08 09:15:00,69.8,39.4,-100.00,SW,216,0.0,0.0,33,0.00,,,0.00,VWS V14.01,2013-08-08 16:15:00,
2013-08-08 09:20:00,70.3,39.9,-100.00,South,174,0.0,3.6,33,0.00,,,0.00,VWS V14.01,2013-08-08 16:20:00,
2013-08-08 09:25:00,70.9,40.4,-100.00,SSE,168,0.0,3.6,33,0.00,,,0.00,VWS V14.01,2013-08-08 16:25:00,
2013-08-08 09:31:00,71.2,39.9,-100.00,East,82,0.0,3.6,32,0.00,,,0.00,VWS V14.01,2013-08-08 16:31:00,
2013-08-08 09:36:00,71.6,40.2,-100.00,South,175,3.6,4.9,32,0.00,,,0.00,VWS V14.01,2013-08-08 16:36:00,
2013-08-08 09:41:00,72.1,39.9,-100.00,NE,52,0.0,4.9,31,0.00,,,0.00,VWS V14.01,2013-08-08 16:41:00,
2013-08-08 09:46:00,72.5,40.2,-100.00,South,174,2.7,5.4,31,0.00,,,0.00,VWS V14.01,2013-08-08 16:46:00,
2013-08-08 09:51:00,72.9,40.5,-100.00,ENE,77,0.0,5.4,31,0.00,,,0.00,VWS V14.01,2013-08-08 16:51:00,
2013-08-08 09:56:00,73.2,40.8,-100.00,NNE,19,0.0,5.4,31,0.00,,,0.00,VWS V14.01,2013-08-08 16:56:00,
2013-08-08 10:01:00,73.8,40.4,-100.00,North,353,0.0,2.7,30,0.00,,,0.00,VWS V14.01,2013-08-08 17:01:00,
2013-08-08 10:06:00,74.1,41.6,-100.00,SSW,211,0.0,2.7,31,0.00,,,0.00,VWS V14.01,2013-08-08 17:06:00,
2013-08-08 10:12:00,74.8,39.6,-100.00,South,176,2.7,4.9,28,0.00,,,0.00,VWS V14.01,2013-08-08 17:12:00,
2013-08-08 10:17:00,75.4,41.0,-100.00,SSW,207,0.0,4.9,29,0.00,,,0.00,VWS V14.01,2013-08-08 17:17:00,
2013-08-08 10:22:00,76.3,39.9,-100.00,SW,225,0.0,4.9,27,0.00,,,0.00,VWS V14.01,2013-08-08 17:22:00,
2013-08-08 10:27:00,76.8,42.2,-100.00,South,181,0.0,4.9,29,0.00,,,0.00,VWS V14.01,2013-08-08 17:27:00,
2013-08-08 10:32:00,77.4,38.8,-100.00,ENE,67,0.0,4.9,25,0.00,,,0.00,VWS V14.01,2013-08-08 17:32:00,
2013-08-08 10:37:00,77.2,38.7,-100.00,SSE,154,0.0,4.9,25,0.00,,,0.00,VWS V14.01,2013-08-08 17:37:00,
2013-08-08 10:42:00,77.7,39.1,-100.00,South,181,4.0,4.9,25,0.00,,,0.00,VWS V14.01,2013-08-08 17:42:00,
2013-08-08 10:47:00,78.3,38.5,-100.00,SW,218,0.0,4.9,24,0.00,,,0.00,VWS V14.01,2013-08-08 17:47:00,
2013-08-08 10:52:00,78.8,39.0,-100.00,SSW,204,0.0,4.9,24,0.00,,,0.00,VWS V14.01,2013-08-08 17:52:00,
2013-08-08 10:57:00,79.2,38.2,-100.00,SW,214,0.0,4.9,23,0.00,,,0.00,VWS V14.01,2013-08-08 17:57:00,
2013-08-08 11:02:00,79.0,38.1,-100.00,ENE,74,0.0,0.0,23,0.00,,,0.00,VWS V14.01,2013-08-08 18:02:00,
2013-08-08 11:07:00,79.3,38.4,-100.00,NNW,339,0.0,5.4,23,0.00,,,0.00,VWS V14.01,2013-08-08 18:07:00,
2013-08-08 11:12:00,79.9,37.7,-100.00,ENE,66,0.0,5.4,22,0.00,,,0.00,VWS V14.01,2013-08-08 18:12:00,
2013-08-08 11:17:00,80.4,38.1,-100.00,SW,233,0.0,5.4,22,0.00,,,0.00,VWS V14.01,2013-08-08 18:17:00,
2013-08-08 11:22:00,80.4,39.3,-100.00,SSE,163,3.1,5.4,23,0.00,,,0.00,VWS V14.01,2013-08-08 18:22:00,
2013-08-08 11:27:00,81.1,38.7,-100.00,SSE,158,0.0,5.4,22,0.00,,,0.00,VWS V14.01,2013-08-08 18:27:00,
2013-08-08 11:32:00,81.3,38.9,-100.00,NE,52,0.0,5.4,22,0.00,,,0.00,VWS V14.01,2013-08-08 18:32:00,
2013-08-08 11:37:00,81.5,39.0,-100.00,East,80,3.6,5.4,22,0.00,,,0.00,VWS V14.01,2013-08-08 18:37:00,
2013-08-08 11:42:00,81.9,38.1,-100.00,WNW,299,2.2,5.8,21,0.00,,,0.00,VWS V14.01,2013-08-08 18:42:00,
2013-08-08 11:47:00,82.0,39.5,-100.00,NW,316,0.0,5.8,22,0.00,,,0.00,VWS V14.01,2013-08-08 18:47:00,
2013-08-08 11:53:00,82.6,38.7,-100.00,WNW,295,0.0,5.8,21,0.00,,,0.00,VWS V14.01,2013-08-08 18:53:00,
2013-08-08 11:58:00,82.9,39.0,-100.00,NE,36,0.0,5.8,21,0.00,,,0.00,VWS V14.01,2013-08-08 18:58:00,
2013-08-08 12:03:00,82.8,38.9,-100.00,WNW,286,5.4,5.4,21,0.00,,,0.00,VWS V14.01,2013-08-08 19:03:00,
2013-08-08 12:09:00,83.1,39.2,-100.00,West,281,0.0,5.4,21,0.00,,,0.00,VWS V14.01,2013-08-08 19:09:00,
2013-08-08 12:14:00,83.5,39.5,-100.00,North,353,2.7,5.4,21,0.00,,,0.00,VWS V14.01,2013-08-08 19:14:00,
2013-08-08 12:19:00,83.1,39.2,-100.00,West,277,2.7,5.4,21,0.00,,,0.00,VWS V14.01,2013-08-08 19:19:00,
2013-08-08 12:24:00,83.8,39.8,-100.00,NNW,337,0.0,5.4,21,0.00,,,0.00,VWS V14.01,2013-08-08 19:24:00,
2013-08-08 12:29:00,84.2,38.8,-100.00,East,92,2.2,5.8,20,0.00,,,0.00,VWS V14.01,2013-08-08 19:29:00,
2013-08-08 12:35:00,84.0,38.7,-100.00,NE,41,0.0,5.8,20,0.00,,,0.00,VWS V14.01,2013-08-08 19:35:00,
2013-08-08 12:40:00,83.5,38.2,-100.00,North,0,0.0,5.8,20,0.00,,,0.00,VWS V14.01,2013-08-08 19:40:00,
2013-08-08 12:45:00,83.8,38.5,-100.00,East,96,0.0,5.8,20,0.00,,,0.00,VWS V14.01,2013-08-08 19:45:00,
2013-08-08 12:51:00,84.0,38.7,-100.00,NNW,334,3.1,5.8,20,0.00,,,0.00,VWS V14.01,2013-08-08 19:51:00,
2013-08-08 12:53:00,84.2,38.8,-100.00,ENE,67,0.0,5.8,20,0.00,,,0.00,VWS V14.01,2013-08-08 19:53:00,
2013-08-08 13:14:00,85.8,40.2,-100.00,NE,42,0.0,0.0,20,0.00,,,0.00,VWS V14.01,2013-08-08 20:14:00,
2013-08-08 13:19:00,86.0,39.0,-100.00,ENE,75,3.1,5.4,19,0.00,,,0.00,VWS V14.01,2013-08-08 20:19:00,
2013-08-08 13:24:00,86.2,39.1,-100.00,SW,230,0.0,5.4,19,0.00,,,0.00,VWS V14.01,2013-08-08 20:24:00,
2013-08-08 13:29:00,86.5,39.4,-100.00,East,83,3.6,5.4,19,0.00,,,0.00,VWS V14.01,2013-08-08 20:29:00,
2013-08-08 13:34:00,87.1,39.9,-100.00,North,357,0.0,5.4,19,0.00,,,0.00,VWS V14.01,2013-08-08 20:34:00,
2013-08-08 13:39:00,86.7,39.6,-100.00,West,264,3.6,5.8,19,0.00,,,0.00,VWS V14.01,2013-08-08 20:39:00,
2013-08-08 13:45:00,86.9,39.7,-100.00,East,89,0.0,5.8,19,0.00,,,0.00,VWS V14.01,2013-08-08 20:45:00,
2013-08-08 13:50:00,87.3,40.0,-100.00,WNW,301,3.6,5.8,19,0.00,,,0.00,VWS V14.01,2013-08-08 20:50:00,
2013-08-08 15:09:00,87.3,40.0,-100.00,WNW,301,0.0,5.8,19,0.00,,,0.00,VWS V14.01,2013-08-08 22:09:00,
2013-08-08 15:14:00,87.3,38.6,-100.00,NW,316,0.0,5.8,18,0.00,,,0.00,VWS V14.01,2013-08-08 22:14:00,
2013-08-08 15:19:00,87.8,39.1,-100.00,NNW,328,3.1,5.8,18,0.00,,,0.00,VWS V14.01,2013-08-08 22:19:00,
2013-08-08 15:25:00,88.2,39.4,-100.00,ENE,62,0.0,5.8,18,0.00,,,0.00,VWS V14.01,2013-08-08 22:25:00,
2013-08-08 15:30:00,88.2,39.4,-100.00,East,91,0.0,5.8,18,0.00,,,0.00,VWS V14.01,2013-08-08 22:30:00,
2013-08-08 15:35:00,88.5,39.7,-100.00,NNW,339,4.0,5.8,18,0.00,,,0.00,VWS V14.01,2013-08-08 22:35:00,
2013-08-08 15:40:00,88.3,39.5,-100.00,East,101,0.0,5.8,18,0.00,,,0.00,VWS V14.01,2013-08-08 22:40:00,
2013-08-08 15:46:00,88.7,39.8,-100.00,East,96,3.1,5.8,18,0.00,,,0.00,VWS V14.01,2013-08-08 22:46:00,
2013-08-08 15:51:00,88.9,39.9,-100.00,NE,39,0.0,5.8,18,0.00,,,0.00,VWS V14.01,2013-08-08 22:51:00,
2013-08-08 15:56:00,88.9,39.9,-100.00,North,0,0.0,5.8,18,0.00,,,0.00,VWS V14.01,2013-08-08 22:56:00,
2013-08-08 16:00:00,88.9,39.9,-100.00,SW,227,0.0,5.8,18,0.00,,,0.00,VWS V14.01,2013-08-08 23:00:00,
2013-08-08 16:01:00,88.9,39.9,-100.00,SW,227,0.0,0.0,18,0.00,,,0.00,VWS V14.01,2013-08-08 23:01:00,
2013-08-08 16:06:00,88.9,39.9,-100.00,SW,227,0.0,4.9,18,0.00,,,0.00,VWS V14.01,2013-08-08 23:06:00,
2013-08-08 16:18:00,87.3,38.6,-100.00,East,83,0.0,4.9,18,0.00,,,0.00,VWS V14.01,2013-08-08 23:18:00,
2013-08-08 16:23:00,87.1,38.5,-100.00,East,90,0.0,4.9,18,0.00,,,0.00,VWS V14.01,2013-08-08 23:23:00,
2013-08-08 16:28:00,87.3,38.6,-100.00,NW,308,0.0,4.9,18,0.00,,,0.00,VWS V14.01,2013-08-08 23:28:00,
2013-08-08 16:33:00,88.2,39.4,-100.00,SSE,155,0.0,4.9,18,0.00,,,0.00,VWS V14.01,2013-08-08 23:33:00,
2013-08-08 16:38:00,88.7,39.8,-100.00,SSE,157,0.0,4.9,18,0.00,,,0.00,VWS V14.01,2013-08-08 23:38:00,
2013-08-08 16:44:00,88.7,39.8,-100.00,NW,322,2.7,4.9,18,0.00,,,0.00,VWS V14.01,2013-08-08 23:44:00,
2013-08-08 16:50:00,89.1,40.1,-100.00,ENE,73,0.0,4.9,18,0.00,,,0.00,VWS V14.01,2013-08-08 23:50:00,
2013-08-08 17:28:00,89.1,40.1,-100.00,WNW,298,4.9,4.9,18,0.00,,,0.00,VWS V14.01,2013-08-09 00:28:00,
2013-08-08 17:33:00,88.2,39.4,-100.00,ENE,74,0.0,0.0,18,0.00,,,0.00,VWS V14.01,2013-08-09 00:33:00,
2013-08-08 17:38:00,88.0,39.2,-100.00,East,80,0.0,0.0,18,0.00,,,0.00,VWS V14.01,2013-08-09 00:38:00,
2013-08-08 17:43:00,87.6,38.9,-100.00,East,80,0.0,0.0,18,0.00,,,0.00,VWS V14.01,2013-08-09 00:43:00,
2013-08-08 17:49:00,87.1,38.5,-100.00,NNW,342,0.0,0.0,18,0.00,,,0.00,VWS V14.01,2013-08-09 00:49:00,
2013-08-08 17:54:00,86.7,38.2,-100.00,ESE,110,0.0,0.0,18,0.00,,,0.00,VWS V14.01,2013-08-09 00:54:00,
2013-08-08 17:59:00,86.4,37.9,-100.00,NW,324,0.0,3.1,18,0.00,,,0.00,VWS V14.01,2013-08-09 00:59:00,
2013-08-08 18:21:00,85.3,37.0,-100.00,North,357,0.0,0.0,18,0.00,,,0.00,VWS V14.01,2013-08-09 01:21:00,
2013-08-08 18:26:00,85.1,36.9,-100.00,NNW,335,0.0,0.0,18,0.00,,,0.00,VWS V14.01,2013-08-09 01:26:00,
2013-08-08 18:31:00,84.7,36.6,-100.00,NNW,340,0.0,0.0,18,0.00,,,0.00,VWS V14.01,2013-08-09 01:31:00,
2013-08-08 18:36:00,84.6,36.4,-100.00,NE,47,0.0,2.7,18,0.00,,,0.00,VWS V14.01,2013-08-09 01:36:00,
2013-08-08 18:41:00,84.2,36.2,-100.00,NE,51,0.0,2.7,18,0.00,,,0.00,VWS V14.01,2013-08-09 01:41:00,
2013-08-08 18:47:00,84.0,37.4,-100.00,NNW,342,0.0,2.7,19,0.00,,,0.00,VWS V14.01,2013-08-09 01:47:00,
2013-08-08 18:52:00,83.8,37.2,-100.00,North,2,0.0,3.6,19,0.00,,,0.00,VWS V14.01,2013-08-09 01:52:00,
2013-08-08 18:55:00,83.7,37.1,-100.00,North,2,0.0,3.6,19,0.00,,,0.00,VWS V14.01,2013-08-09 01:55:00,
2013-08-08 20:04:00,83.7,37.1,-100.00,North,2,0.0,3.6,19,0.00,,,0.00,VWS V14.01,2013-08-09 03:04:00,
2013-08-08 20:09:00,78.6,40.9,-100.00,West,276,2.2,4.0,26,0.00,,,0.00,VWS V14.01,2013-08-09 03:09:00,
2013-08-08 20:14:00,78.1,41.4,-100.00,SW,233,0.0,4.0,27,0.00,,,0.00,VWS V14.01,2013-08-09 03:14:00,
2013-08-08 20:19:00,77.7,42.0,-100.00,SW,223,0.0,4.0,28,0.00,,,0.00,VWS V14.01,2013-08-09 03:19:00,
2013-08-08 20:24:00,77.2,43.4,-100.00,West,261,3.1,4.0,30,0.00,,,0.00,VWS V14.01,2013-08-09 03:24:00,
2013-08-08 20:29:00,76.6,43.8,-100.00,SW,230,0.0,5.4,31,0.00,,,0.00,VWS V14.01,2013-08-09 03:29:00,
2013-08-08 20:35:00,76.5,43.6,-100.00,SW,235,0.0,5.4,31,0.00,,,0.00,VWS V14.01,2013-08-09 03:35:00,
2013-08-08 20:38:00,76.3,43.5,-100.00,SSW,208,2.7,5.4,31,0.00,,,0.00,VWS V14.01,2013-08-09 03:38:00,
2013-08-08 21:01:00,74.8,43.0,-100.00,SSW,208,2.7,5.4,32,0.00,,,0.00,VWS V14.01,2013-08-09 04:01:00,
2013-08-08 21:02:00,74.7,42.9,-100.00,WSW,250,0.0,5.4,32,0.00,,,0.00,VWS V14.01,2013-08-09 04:02:00,
2013-08-08 21:07:00,74.5,42.7,-100.00,WSW,250,0.0,5.4,32,0.00,,,0.00,VWS V14.01,2013-08-09 04:07:00,
2013-08-08 21:13:00,73.9,43.0,-100.00,WSW,250,0.0,5.4,33,0.00,,,0.00,VWS V14.01,2013-08-09 04:13:00,
2013-08-08 21:18:00,73.4,42.6,-100.00,WSW,250,0.0,5.4,33,0.00,,,0.00,VWS V14.01,2013-08-09 04:18:00,
2013-08-08 21:23:00,72.9,42.1,-100.00,WSW,250,0.0,5.4,33,0.00,,,0.00,VWS V14.01,2013-08-09 04:23:00,
2013-08-08 21:28:00,72.3,42.4,-100.00,WSW,250,0.0,5.4,34,0.00,,,0.00,VWS V14.01,2013-08-09 04:28:00,
2013-08-08 21:34:00,72.0,42.8,-100.00,WSW,250,0.0,5.4,35,0.00,,,0.00,VWS V14.01,2013-08-09 04:34:00,
2013-08-08 21:39:00,71.6,42.5,-100.00,WSW,250,0.0,5.4,35,0.00,,,0.00,VWS V14.01,2013-08-09 04:39:00,
2013-08-08 21:45:00,70.9,42.6,-100.00,WSW,250,0.0,5.4,36,0.00,,,0.00,VWS V14.01,2013-08-09 04:45:00,
2013-08-08 21:51:00,70.3,42.2,-100.00,WSW,250,0.0,5.4,36,0.00,,,0.00,VWS V14.01,2013-08-09 04:51:00,
2013-08-08 23:37:00,70.3,42.2,-100.00,WSW,250,0.0,5.4,36,0.00,,,0.00,VWS V14.01,2013-08-09 06:37:00,
2013-08-08 23:42:00,68.0,44.7,-100.00,WSW,250,0.0,5.4,43,0.00,,,0.00,VWS V14.01,2013-08-09 06:42:00,
2013-08-08 23:47:00,67.8,44.5,-100.00,WSW,250,0.0,5.4,43,0.00,,,0.00,VWS V14.01,2013-08-09 06:47:00,
2013-08-08 23:52:00,68.0,44.7,-100.00,WSW,250,0.0,5.4,43,0.00,,,0.00,VWS V14.01,2013-08-09 06:52:00,
2013-08-08 23:57:00,68.2,44.9,-100.00,WSW,250,0.0,5.4,43,0.00,,,0.00,VWS V14.01,2013-08-09 06:57:00,